Happy Valentine's Day! 

Flight Track Log - Related Links

Times and Time Zones

All times are in EDT time to prevent confusion due to time zone crossing. See the CSZ9858 flight status page for this flight to view local times or setup timezone preferences in your user account.


Time Position Orientation Groundspeed Altitude Reporting Facility
EDT Latitude Longitude Course Direction KTS MPH feet Rate Location/Type
Wed 06:50:00 AM 43.2189 124.7704 204° Southwest  Level Estimated
Wed 06:51:00 AM 43.1206 124.7102 204° Southwest  Level Estimated
Wed 06:52:00 AM 43.0222 124.6501 204° Southwest  Level Estimated
Wed 06:53:00 AM 42.9237 124.5903 204° Southwest  Level Estimated
Wed 06:54:00 AM 42.8253 124.5307 204° Southwest  Level Estimated
Wed 06:55:00 AM 42.7268 124.4712 204° Southwest  Level Estimated
Wed 06:56:00 AM 42.6283 124.4120 204° Southwest  Level Estimated
Wed 06:57:00 AM 42.5297 124.3529 204° Southwest  Level Estimated
Wed 06:58:00 AM 42.4311 124.2940 204° Southwest  Level Estimated
Wed 06:59:00 AM 42.3325 124.2353 204° Southwest  Level Estimated
Wed 07:00:00 AM 42.2339 124.1768 204° Southwest  Level Estimated
Wed 07:01:00 AM 42.1352 124.1184 204° Southwest  Level Estimated
Wed 07:02:00 AM 42.0365 124.0603 204° Southwest  Level Estimated
Wed 07:03:00 AM 41.9378 124.0023 204° Southwest  Level Estimated
Wed 07:04:00 AM 41.8390 123.9445 204° Southwest  Level Estimated
Wed 07:05:00 AM 41.7402 123.8869 204° Southwest  Level Estimated
Wed 07:06:00 AM 41.6414 123.8295 203° Southwest  Level Estimated
Wed 07:07:00 AM 41.5426 123.7722 203° Southwest  Level Estimated
Wed 07:08:00 AM 41.4437 123.7151 203° Southwest  Level Estimated
Wed 07:09:00 AM 41.3448 123.6582 203° Southwest  Level Estimated
Wed 07:10:00 AM 41.2459 123.6015 203° Southwest  Level Estimated
Wed 07:11:00 AM 41.1469 123.5449 203° Southwest  Level Estimated
Wed 07:12:00 AM 41.0480 123.4885 203° Southwest  Level Estimated
Wed 07:13:00 AM 40.9490 123.4323 203° Southwest  Level Estimated
Wed 07:14:00 AM 40.8499 123.3762 203° Southwest  Level Estimated
Wed 07:15:00 AM 40.7509 123.3203 203° Southwest  Level Estimated
Wed 07:16:00 AM 40.6518 123.2646 203° Southwest  Level Estimated
Wed 07:17:00 AM 40.5527 123.2090 203° Southwest  Level Estimated
Wed 07:18:00 AM 40.4535 123.1536 203° Southwest  Level Estimated
Wed 07:19:00 AM 40.3543 123.0984 203° Southwest  Level Estimated
Wed 07:20:00 AM 40.2551 123.0433 203° Southwest  Level Estimated
Wed 07:21:00 AM 40.1559 122.9884 203° Southwest  Level Estimated
Wed 07:22:00 AM 40.0567 122.9336 203° Southwest  Level Estimated
Wed 07:23:00 AM 39.9574 122.8791 203° Southwest  Level Estimated
Wed 07:24:00 AM 39.8581 122.8246 203° Southwest  Level Estimated
Wed 07:25:00 AM 39.7588 122.7703 203° Southwest  Level Estimated
Wed 07:26:00 AM 39.6594 122.7162 203° Southwest  Level Estimated
Wed 07:27:00 AM 39.5601 122.6622 203° Southwest  Level Estimated
Wed 07:28:00 AM 39.4607 122.6084 203° Southwest  Level Estimated
Wed 07:29:00 AM 39.3612 122.5548 203° Southwest  Level Estimated
Wed 07:30:00 AM 39.2618 122.5013 203° Southwest  Level Estimated
Wed 07:31:00 AM 39.1623 122.4479 203° Southwest  Level Estimated
Wed 07:32:00 AM 39.0628 122.3947 203° Southwest  Level Estimated
Wed 07:33:00 AM 38.9633 122.3417 203° Southwest  Level Estimated
Wed 07:34:00 AM 38.8638 122.2888 202° Southwest  Level Estimated
Wed 07:35:00 AM 38.7642 122.2360 202° Southwest  Level Estimated
Wed 07:36:00 AM 38.6646 122.1834 202° Southwest  Level Estimated
Wed 07:37:00 AM 38.5650 122.1309 202° Southwest  Level Estimated
Wed 07:38:00 AM 38.4653 122.0786 202° Southwest  Level Estimated
Wed 07:39:00 AM 38.3657 122.0264 202° Southwest  Level Estimated
Wed 07:40:00 AM 38.2660 121.9744 202° Southwest  Level Estimated
Wed 07:41:00 AM 38.1663 121.9225 202° Southwest  Level Estimated
Wed 07:42:00 AM 38.0665 121.8708 202° Southwest  Level Estimated
Wed 07:43:00 AM 37.9668 121.8192 202° Southwest  Level Estimated
Wed 07:44:00 AM 37.8670 121.7677 202° Southwest  Level Estimated
Wed 07:45:00 AM 37.7672 121.7164 202° Southwest  Level Estimated
Wed 07:46:00 AM 37.6674 121.6652 202° Southwest  Level Estimated
Wed 07:47:00 AM 37.5676 121.6141 202° Southwest  Level Estimated
Wed 07:48:00 AM 37.4677 121.5632 202° Southwest  Level Estimated
Wed 07:49:00 AM 37.3678 121.5124 202° Southwest  Level Estimated
Wed 07:50:00 AM 37.2679 121.4618 202° Southwest  Level Estimated
Wed 07:51:00 AM 37.1679 121.4113 202° Southwest  Level Estimated
Wed 07:52:00 AM 37.0680 121.3609 202° Southwest  Level Estimated
Wed 07:53:00 AM 36.9680 121.3107 202° Southwest  Level Estimated
Wed 07:54:00 AM 36.8680 121.2606 202° Southwest  Level Estimated
Wed 07:55:00 AM 36.7680 121.2106 202° Southwest  Level Estimated
Wed 07:56:00 AM 36.6680 121.1607 202° Southwest  Level Estimated
Wed 07:57:00 AM 36.5679 121.1110 202° Southwest  Level Estimated
Wed 07:58:00 AM 36.4678 121.0614 202° Southwest  Level Estimated
Wed 07:59:00 AM 36.3677 121.0120 202° Southwest  Level Estimated
Wed 08:00:00 AM 36.2676 120.9626 202° Southwest  Level Estimated
Wed 08:01:00 AM 36.1675 120.9134 202° Southwest  Level Estimated
Wed 08:02:00 AM 36.0673 120.8643 202° Southwest  Level Estimated
Wed 08:03:00 AM 35.9671 120.8154 202° Southwest  Level Estimated
Wed 08:04:00 AM 35.8669 120.7665 202° Southwest  Level Estimated
Wed 08:05:00 AM 35.7667 120.7178 202° Southwest  Level Estimated
Wed 08:06:00 AM 35.6665 120.6692 201° Southwest  Level Estimated
Wed 08:07:00 AM 35.5662 120.6208 201° Southwest  Level Estimated
Wed 08:08:00 AM 35.4659 120.5724 201° Southwest  Level Estimated
Wed 08:09:00 AM 35.3656 120.5242 201° Southwest  Level Estimated
Wed 08:10:00 AM 35.2653 120.4761 201° Southwest  Level Estimated
Wed 08:11:00 AM 35.1650 120.4281 201° Southwest  Level Estimated
Wed 08:12:00 AM 35.0647 120.3802 201° Southwest  Level Estimated
Wed 08:13:00 AM 34.9643 120.3325 201° Southwest  Level Estimated
Wed 08:14:00 AM 34.8639 120.2848 201° Southwest  Level Estimated
Wed 08:15:00 AM 34.7635 120.2373 201° Southwest  Level Estimated
Wed 08:16:00 AM 34.6631 120.1899 201° Southwest  Level Estimated
Wed 08:17:00 AM 34.5626 120.1426 201° Southwest  Level Estimated
Wed 08:18:00 AM 34.4621 120.0955 201° Southwest  Level Estimated
Wed 08:19:00 AM 34.3617 120.0484 201° Southwest  Level Estimated
Wed 08:20:00 AM 34.2612 120.0014 201° Southwest  Level Estimated
Wed 08:21:00 AM 34.1606 119.9546 201° Southwest  Level Estimated
Wed 08:22:00 AM 34.0601 119.9079 201° Southwest  Level Estimated
Wed 08:23:00 AM 33.9595 119.8613 201° Southwest  Level Estimated
Wed 08:24:00 AM 33.8590 119.8148 201° Southwest  Level Estimated
Wed 08:25:00 AM 33.7584 119.7684 201° Southwest  Level Estimated
Wed 08:26:00 AM 33.6578 119.7221 201° Southwest  Level Estimated
Wed 08:27:00 AM 33.5572 119.6759 201° Southwest  Level Estimated
Wed 08:28:00 AM 33.4565 119.6299 201° Southwest  Level Estimated
Wed 08:29:00 AM 33.3559 119.5839 201° Southwest  Level Estimated
Wed 08:30:00 AM 33.2552 119.5380 201° Southwest  Level Estimated
Wed 08:31:00 AM 33.1545 119.4923 201° Southwest  Level Estimated
Wed 08:32:00 AM 33.0538 119.4466 201° Southwest  Level Estimated
Wed 08:33:00 AM 32.9531 119.4011 201° Southwest  Level Estimated
Wed 08:34:00 AM 32.8523 119.3557 201° Southwest  Level Estimated
Wed 08:35:00 AM 32.7516 119.3103 201° Southwest  Level Estimated
Wed 08:36:00 AM 32.6508 119.2651 201° Southwest  Level Estimated
Wed 08:37:00 AM 32.5500 119.2200 201° Southwest  Level Estimated
Wed 08:38:00 AM 32.4492 119.1749 201° Southwest  Level Estimated
Wed 08:39:00 AM 32.3484 119.1300 201° Southwest  Level Estimated
Wed 08:40:00 AM 32.2476 119.0852 201° Southwest  Level Estimated
Wed 08:41:00 AM 32.1467 119.0404 201° Southwest  Level Estimated
Wed 08:42:00 AM 32.0458 118.9958 201° Southwest  Level Estimated
Wed 08:43:00 AM 31.9450 118.9513 201° Southwest  Level Estimated
Wed 08:44:00 AM 31.8440 118.9068 201° Southwest  Level Estimated
Wed 08:45:00 AM 31.7431 118.8625 200° South  Level Estimated
Wed 08:46:00 AM 31.7421 118.8620 200° South  Level Estimated
Wed 08:47:00 AM 31.7421 118.8620 270° West  Level Estimated
Wed 08:48:00 AM 31.7421 118.8620 270° West  Level Estimated
Wed 08:49:00 AM 31.7421 118.8620 270° West  Level Estimated
Wed 08:50:00 AM 31.7421 118.8620 270° West  Level Estimated
Wed 08:51:00 AM 31.7421 118.8620 270° West  Level Estimated
Wed 08:52:00 AM 31.7421 118.8620 270° West  Level Estimated
Wed 08:53:00 AM 31.7421 118.8620 270° West  Level Estimated
Wed 08:54:00 AM 31.7421 118.8620 270° West  Level Estimated
Wed 08:55:00 AM 31.7421 118.8620 270° West  Level Estimated
Wed 08:56:00 AM 31.7421 118.8620 270° West  Level Estimated
Wed 08:57:00 AM 31.7421 118.8620 270° West  Level Estimated
Wed 08:58:00 AM 31.7421 118.8620 270° West  Level Estimated
Wed 08:59:00 AM 31.7421 118.8620 270° West  Level Estimated
Wed 09:00:00 AM 31.7421 118.8620 270° West  Level Estimated
Wed 09:01:00 AM 31.7421 118.8620 270° West  Level Estimated

Login

Don't have an account? Register now (free) for customized features, flight alerts, and more!